TENO2: Tenkiller Lake

Data processed at Mon Aug 13 2018 23:56


All information presented herein is the property of the government of the United States of America and may be revised or deleted at any time without prior notice.
Dissemination of this information without the expressed written consent of the Public Affairs Office, Tulsa District U.S. Army Corps of Engineers is strictly prohibited.
These data are gathered electronically and, as presented, have not undergone any form of quality control. These data are not guaranteed to be valid or correct.
Go to home page.
Go to station list.

Upstream stations:

Downstream station:
Previous Day
Next Day
Current Day
    
SHEF ID:       TENO2     Tenkiller Lake
STATION TYPE:  Reservoir
Normal Pool:  Bottom =   594.50, Top =   632.00

               PRECIP PRECIP(A) ELEVATION   STORAGE   TW-ELEV    INFLOW   RELEASE  AIR-TEMP  WIND-DIRWIND-SPEED REL-HUMID SOLAR-RAD   VOLTAGE  BAT-LOAD
                   in        in        ft     ac-ft        ft       cfs       cfs         F       deg       mph         %      W/m2      volt      volt
              Ccp-Rev   Ccp-Rev   Ccp-Rev   Ccp-Rev   Ccp-Rev  Regi-Rev  Regi-Rev   Ccp-Rev   Ccp-Rev   Ccp-Rev   Ccp-Rev   Ccp-Rev   Ccp-Rev   Ccp-Rev
(US/Central)
08/11 00:00      0.00      0.00    629.15    632206    481.97        82        60     70.86    136.80      0.27    100.05      0.00     13.78     13.24
08/11 01:00      0.00      0.00    629.15    632206    481.97        93        60     69.66    172.70      0.35    100.17      1.00     13.78     13.30
08/11 02:00      0.00      0.00    629.17    632454    481.96       182        60     69.55    172.30      0.40    100.11      0.00     13.78     13.30
08/11 03:00      0.00      0.00    629.16    632330    481.96       271        60     68.67    167.00      0.34    100.23      1.00     13.78     13.30
08/11 04:00      0.00      0.00    629.15    632206    481.96       349        60     68.23    193.20      0.28    100.23      0.00     13.78     13.30
08/11 05:00      0.00      0.00    629.17    632454    481.95       338        60     67.78    263.80      0.19    100.23      0.00     13.78     13.30
08/11 06:00      0.00      0.00    629.16    632330    481.95       326        60     67.24    107.20      0.39    100.17      0.00     13.78     13.30
08/11 07:00      0.00      0.00    629.16    632330    481.95       238        60     66.79    108.20      0.40    100.23      3.00     13.78     13.30
08/11 08:00      0.00      0.00    629.17    632454    481.94       433        60     72.18    118.90      0.39     97.79     72.00     13.78     13.30
08/11 09:00      0.00      0.00    629.16    632330    481.94       344        60     77.58    128.00      0.40     85.95    250.00     13.78     13.24
08/11 10:00      0.00      0.00    629.17    632454    481.94       343        60     82.96    119.90      0.11     72.52    447.00     13.78     13.24
08/11 11:00      0.00      0.00    629.17    632454    481.94       331        60     84.94    337.30      0.45     69.34    595.00     13.78     13.24
08/11 12:00      0.00      0.00    629.17    632454    481.94       320        60     86.36    217.10      1.12     67.88    631.00     13.78     13.24
08/11 13:00      0.00      0.00    629.15    632206    483.45        24        60     87.46    221.30      2.06     65.38    648.00     13.78     13.24
08/11 14:00      0.00      0.00    629.13    631958    486.92        13      3716     86.47    249.40      1.28     64.03    557.00     13.78     13.24
08/11 15:00      0.00      0.00    629.13    631958    486.95        36      3801     86.79    248.00      0.93     63.61    474.00     13.78     13.24
08/11 16:00      0.00      0.00    629.09    631462    486.89       113      3801     86.68    250.80      0.50     61.78    351.00     13.78     13.24
08/11 17:00      0.00      0.00    629.07    631214    487.01       190      3716     87.03    246.50      0.36     58.97    342.00     13.78     13.24
08/11 18:00      0.00      0.00    629.08    631338    486.50       202      3716     86.68    236.80      0.32     61.96    276.00     13.79     13.24
08/11 19:00      0.00      0.00    629.05    630967    482.42       213        60     84.16    212.50      1.00     65.80    143.00     13.79     13.24
08/11 20:00      0.00      0.00    629.04    630843    482.05       191        60     80.42    167.60      0.39     81.49     48.00     13.78     13.24
08/11 21:00      0.00      0.00    629.05    630967    482.00       126        60     76.59    152.70      0.40     94.68      2.00     13.78     13.24
08/11 22:00      0.00      0.00    629.05    630967    481.98        60        60     74.39    152.70      0.40     99.93      0.00     13.78     13.24
08/11 23:00      0.00      0.00    629.06    631091    481.97        60        60     72.41    152.80      0.40    100.23      0.00     13.78     13.24